Amsden, Ohio
Current Conditions -  °F | °C
As of 7:53 PM on Friday 28 Nov 2014 (Local Time) from KFDY Reporting Station
Broken Clouds Broken Clouds  
Wind Chill: 22°   Ceiling: 7000
Heat Index: 32°   Visibility: 10mi
Dew Point: 22°   Wind: 14mph
Humidity: 66%   Direction: 170°S
Pressure: 30.11"   Gusts: NA
Location:  41.22°N, 83.33°W
Report Text: KFDY 290053Z AUTO 17012KT 10SM BKN070 BKN100 00/M06 A3011 RMK AO2 SLP202 T00001056
Loading
Personal Weather Stations






























Interactive Weather Map New forecast layout! Learn more

10-Day Weather Forecast

Advertisements
Track Severe Weather on mobile